Anta, Peru
Current Conditions -  °F | °C
As of 5:00 AM on Tuesday 27 Jan 2015 (Local Time) from SPRU Reporting Station
Overcast Overcast  
Wind Chill: 21°   Ceiling: 8000
Heat Index: 21°   Visibility: 4mi
Dew Point: 19°   Wind: 6mph
Humidity: 88%   Direction: 100°E
Pressure: 29.88"   Gusts: NA
Location:  9.35°S, 77.6°W
Report Text: SPRU 271000Z 10005KT 170V130 6000 SCT005 OVC080 21/19 Q1012 RMKPP000
Loading
Personal Weather Stations






























Interactive Weather Map New forecast layout! Learn more

10-Day Weather Forecast

Advertisements
Track Severe Weather on mobile